Aérodrome :
LOGIN :

S'inscrire | Disclaimer

   EN    FR    IT 

 










Légende :    VFR   VFR Marginal   IFR   IFR Intensif   IFR Très Intensif
Visi : 
Plafond : 
>= 8 km
>= 3000ft
5 à 8 km
1000 à 3000 ft
1500m à 5 km
500 à 1000 ft
800 à 1500m
200 à 500 ft
< 800m
< 200 ft
Symboles :   Orages  Brouillard  Fortes neiges  Fortes précipitations  Vent > 20 kt
SIGMETs :   Divers  Orages  Givrage  Turbulence  Onde Orograph.  Cendres Volcan.







- Altitude de l'aérodrome : 120 ft
- Code IATA : MME
- Voir les cartes d'approche


EGNV - Durham Tees valley

DERNIER METAR :
  • 170550Z 18008KT 9000 -RA FEW005 SCT035 14/12 Q1006

METARs EXPIRÉS :
  • 170520Z 18010KT 9999 FEW006 BKN035 14/12 Q1006
  • 170450Z 17010KT 6000 -RA FEW003 BKN034 14/13 Q1006

TAF TAF EGNV
Valide du 17 à 05h jusqu'au 17 à 12h UTC


170525Z 1705/1712 18007KT 9999 SCT035
PROB30
TEMPO 1705/1708 8000 -RA BKN008
BECMG 1707/1710 24010KT
ATIS : +44 9012 018 111
Pas de NOTAMs connus pour ce terrain.



MET'MAP, la Météo Aéronautique d'un coup d'oeil ! - Copyright ORBIFLY Décembre 2007 - Disclaimer

ORBIFLY MET'MAP TEAM :

Programmation & Développement : Alexandra Zaïnal
Conception & Développement : Baudouin d'Aumeries
Co-Programmation & Développement : Marc-Olivier Méhu
Soutien technique & logistique : Manuel Goepfert

Contact : metmap@orbifly.com




SOURCES & CREDITS :

   NOAA